sensor_id;sensor_type;location;lat;lon;timestamp;pressure;altitude;pressure_sealevel;temperature;humidity
70434;BME280;57876;47.792;12.960;2023-05-03T00:01:55;97464.50;;;14.18;53.91
70434;BME280;57876;47.792;12.960;2023-05-03T00:04:20;97462.88;;;14.17;53.85
70434;BME280;57876;47.792;12.960;2023-05-03T00:06:46;97465.31;;;14.19;54.12
70434;BME280;57876;47.792;12.960;2023-05-03T00:09:10;97453.38;;;14.15;54.22
70434;BME280;57876;47.792;12.960;2023-05-03T00:11:35;97457.75;;;14.16;53.90
70434;BME280;57876;47.792;12.960;2023-05-03T00:14:00;97452.00;;;14.17;53.83
70434;BME280;57876;47.792;12.960;2023-05-03T00:16:24;97456.34;;;14.18;53.75
70434;BME280;57876;47.792;12.960;2023-05-03T00:18:49;97467.22;;;14.18;54.24
70434;BME280;57876;47.792;12.960;2023-05-03T00:21:13;97461.28;;;14.16;53.89
70434;BME280;57876;47.792;12.960;2023-05-03T00:23:38;97459.06;;;14.18;53.87
70434;BME280;57876;47.792;12.960;2023-05-03T00:26:02;97452.59;;;14.14;53.86
70434;BME280;57876;47.792;12.960;2023-05-03T00:28:26;97453.63;;;14.18;54.20
70434;BME280;57876;47.792;12.960;2023-05-03T00:30:51;97454.44;;;14.19;54.10
70434;BME280;57876;47.792;12.960;2023-05-03T00:33:16;97453.63;;;14.18;54.00
70434;BME280;57876;47.792;12.960;2023-05-03T00:35:41;97453.09;;;14.16;54.22
70434;BME280;57876;47.792;12.960;2023-05-03T00:38:06;97449.28;;;14.17;53.91
70434;BME280;57876;47.792;12.960;2023-05-03T00:40:30;97450.91;;;14.18;53.96
70434;BME280;57876;47.792;12.960;2023-05-03T00:42:54;97444.94;;;14.16;54.13
70434;BME280;57876;47.792;12.960;2023-05-03T00:45:19;97448.47;;;14.17;54.26
70434;BME280;57876;47.792;12.960;2023-05-03T00:47:43;97446.28;;;14.19;53.91
70434;BME280;57876;47.792;12.960;2023-05-03T00:50:08;97447.38;;;14.18;54.04
70434;BME280;57876;47.792;12.960;2023-05-03T00:52:34;97444.94;;;14.16;54.03
70434;BME280;57876;47.792;12.960;2023-05-03T00:54:59;97440.31;;;14.17;53.71
70434;BME280;57876;47.792;12.960;2023-05-03T00:57:25;97437.59;;;14.17;54.23
70434;BME280;57876;47.792;12.960;2023-05-03T00:59:51;97441.69;;;14.14;54.14
70434;BME280;57876;47.792;12.960;2023-05-03T01:02:16;97447.66;;;14.16;54.08
70434;BME280;57876;47.792;12.960;2023-05-03T01:04:40;97441.69;;;14.14;53.90
70434;BME280;57876;47.792;12.960;2023-05-03T01:17:58;97449.28;;;14.17;54.01
70434;BME280;57876;47.792;12.960;2023-05-03T01:20:29;97453.38;;;14.15;54.14
70434;BME280;57876;47.792;12.960;2023-05-03T01:25:22;97452.00;;;14.17;54.24
70434;BME280;57876;47.792;12.960;2023-05-03T01:27:55;97446.06;;;14.15;54.16
70434;BME280;57876;47.792;12.960;2023-05-03T01:30:21;97449.59;;;14.16;53.97
70434;BME280;57876;47.792;12.960;2023-05-03T01:33:10;97452.31;;;14.16;54.21
70434;BME280;57876;47.792;12.960;2023-05-03T01:35:43;97448.47;;;14.17;54.02
70434;BME280;57876;47.792;12.960;2023-05-03T01:38:11;97450.38;;;14.16;54.05
70434;BME280;57876;47.792;12.960;2023-05-03T01:40:46;97444.13;;;14.16;54.09
70434;BME280;57876;47.792;12.960;2023-05-03T01:43:12;97441.41;;;14.16;53.85
70434;BME280;57876;47.792;12.960;2023-05-03T01:45:39;97436.25;;;14.14;53.89
70434;BME280;57876;47.792;12.960;2023-05-03T01:48:17;97442.22;;;14.16;54.07
70434;BME280;57876;47.792;12.960;2023-05-03T01:50:42;97439.50;;;14.16;54.05
70434;BME280;57876;47.792;12.960;2023-05-03T01:53:06;97450.38;;;14.16;53.95
70434;BME280;57876;47.792;12.960;2023-05-03T01:55:31;97437.06;;;14.15;54.28
70434;BME280;57876;47.792;12.960;2023-05-03T01:57:55;97434.44;;;14.09;54.14
70434;BME280;57876;47.792;12.960;2023-05-03T02:00:22;97433.00;;;14.12;54.45
70434;BME280;57876;47.792;12.960;2023-05-03T02:02:47;97434.94;;;14.12;54.15
70434;BME280;57876;47.792;12.960;2023-05-03T02:05:11;97451.19;;;14.17;54.06
70434;BME280;57876;47.792;12.960;2023-05-03T02:07:36;97438.75;;;14.10;54.02
70434;BME280;57876;47.792;12.960;2023-05-03T02:10:01;97438.75;;;14.10;54.12
70434;BME280;57876;47.792;12.960;2023-05-03T02:12:25;97440.09;;;14.13;53.92
70434;BME280;57876;47.792;12.960;2023-05-03T02:14:50;97442.50;;;14.15;54.06
70434;BME280;57876;47.792;12.960;2023-05-03T02:17:14;97445.53;;;14.13;54.18
70434;BME280;57876;47.792;12.960;2023-05-03T02:19:40;97443.34;;;14.15;53.82
70434;BME280;57876;47.792;12.960;2023-05-03T02:22:04;97447.13;;;14.14;54.40
70434;BME280;57876;47.792;12.960;2023-05-03T02:24:29;97448.78;;;14.15;53.97
70434;BME280;57876;47.792;12.960;2023-05-03T02:26:54;97449.59;;;14.16;54.03
70434;BME280;57876;47.792;12.960;2023-05-03T02:29:18;97446.88;;;14.16;53.86
70434;BME280;57876;47.792;12.960;2023-05-03T02:31:43;97450.97;;;14.13;53.92
70434;BME280;57876;47.792;12.960;2023-05-03T02:34:08;97447.66;;;14.16;54.06
70434;BME280;57876;47.792;12.960;2023-05-03T02:36:32;97449.88;;;14.14;53.73
70434;BME280;57876;47.792;12.960;2023-05-03T02:38:57;97449.59;;;14.16;54.01
70434;BME280;57876;47.792;12.960;2023-05-03T02:41:21;97448.03;;;14.09;54.09
70434;BME280;57876;47.792;12.960;2023-05-03T02:43:46;97433.59;;;14.09;53.88
70434;BME280;57876;47.792;12.960;2023-05-03T02:46:10;97447.44;;;14.13;53.88
70434;BME280;57876;47.792;12.960;2023-05-03T02:48:34;97444.41;;;14.14;53.67
70434;BME280;57876;47.792;12.960;2023-05-03T02:50:59;97444.13;;;14.16;53.90
70434;BME280;57876;47.792;12.960;2023-05-03T02:53:23;97443.34;;;14.15;54.24
70434;BME280;57876;47.792;12.960;2023-05-03T02:55:48;97436.03;;;14.10;53.92
70434;BME280;57876;47.792;12.960;2023-05-03T02:58:13;97435.25;;;14.10;54.14
70434;BME280;57876;47.792;12.960;2023-05-03T03:00:38;97447.13;;;14.14;54.00
70434;BME280;57876;47.792;12.960;2023-05-03T03:03:02;97436.84;;;14.11;54.18
70434;BME280;57876;47.792;12.960;2023-05-03T03:05:27;97441.69;;;14.14;54.34
70434;BME280;57876;47.792;12.960;2023-05-03T03:07:51;97441.69;;;14.14;54.40
70434;BME280;57876;47.792;12.960;2023-05-03T03:10:16;97433.00;;;14.12;54.13
70434;BME280;57876;47.792;12.960;2023-05-03T03:12:40;97440.16;;;14.08;54.04
70434;BME280;57876;47.792;12.960;2023-05-03T03:15:05;97450.38;;;14.16;54.38
70434;BME280;57876;47.792;12.960;2023-05-03T03:17:30;97447.94;;;14.15;53.88
70434;BME280;57876;47.792;12.960;2023-05-03T03:19:55;97439.56;;;14.11;53.93
70434;BME280;57876;47.792;12.960;2023-05-03T03:22:19;97446.34;;;14.14;53.84
70434;BME280;57876;47.792;12.960;2023-05-03T03:24:44;97440.63;;;14.15;53.81
70434;BME280;57876;47.792;12.960;2023-05-03T03:27:09;97443.34;;;14.15;54.34
70434;BME280;57876;47.792;12.960;2023-05-03T03:29:34;97447.13;;;14.14;54.35
70434;BME280;57876;47.792;12.960;2023-05-03T03:31:58;97448.25;;;14.13;54.36
70434;BME280;57876;47.792;12.960;2023-05-03T03:34:22;97440.91;;;14.14;54.09
70434;BME280;57876;47.792;12.960;2023-05-03T03:36:47;97434.13;;;14.11;54.02
70434;BME280;57876;47.792;12.960;2023-05-03T03:39:11;97442.28;;;14.11;54.02
70434;BME280;57876;47.792;12.960;2023-05-03T03:41:36;97440.91;;;14.14;54.19
70434;BME280;57876;47.792;12.960;2023-05-03T03:44:00;97442.28;;;14.11;53.92
70434;BME280;57876;47.792;12.960;2023-05-03T03:46:25;97448.78;;;14.15;53.93
70434;BME280;57876;47.792;12.960;2023-05-03T03:48:49;97447.44;;;14.13;53.88
70434;BME280;57876;47.792;12.960;2023-05-03T03:51:14;97449.34;;;14.12;54.17
70434;BME280;57876;47.792;12.960;2023-05-03T03:53:39;97458.81;;;14.15;54.13
70434;BME280;57876;47.792;12.960;2023-05-03T03:56:03;97450.66;;;14.15;53.78
70434;BME280;57876;47.792;12.960;2023-05-03T03:58:28;97457.50;;;14.12;54.13
70434;BME280;57876;47.792;12.960;2023-05-03T04:00:53;97447.44;;;14.13;53.68
70434;BME280;57876;47.792;12.960;2023-05-03T04:03:17;97446.13;;;14.10;54.34
70434;BME280;57876;47.792;12.960;2023-05-03T04:05:41;97454.50;;;14.14;53.90
70434;BME280;57876;47.792;12.960;2023-05-03T04:08:06;97456.69;;;14.12;54.01
70434;BME280;57876;47.792;12.960;2023-05-03T04:10:30;97456.41;;;14.13;54.04
70434;BME280;57876;47.792;12.960;2023-05-03T04:12:55;97461.06;;;14.13;54.34
70434;BME280;57876;47.792;12.960;2023-05-03T04:15:19;97464.84;;;14.12;53.89
70434;BME280;57876;47.792;12.960;2023-05-03T04:17:43;97463.47;;;14.14;54.34
70434;BME280;57876;47.792;12.960;2023-05-03T04:20:11;97469.72;;;14.15;54.08
70434;BME280;57876;47.792;12.960;2023-05-03T04:22:36;97466.78;;;14.11;53.86
70434;BME280;57876;47.792;12.960;2023-05-03T04:25:04;97466.19;;;14.14;54.16
70434;BME280;57876;47.792;12.960;2023-05-03T04:27:30;97469.50;;;14.11;53.79
70434;BME280;57876;47.792;12.960;2023-05-03T04:29:56;97464.06;;;14.11;53.92
70434;BME280;57876;47.792;12.960;2023-05-03T04:32:21;97475.16;;;14.15;54.06
70434;BME280;57876;47.792;12.960;2023-05-03T04:34:48;97473.31;;;14.10;53.83
70434;BME280;57876;47.792;12.960;2023-05-03T04:37:17;97477.06;;;14.14;54.00
70434;BME280;57876;47.792;12.960;2023-05-03T04:39:45;97476.25;;;14.14;54.02
70434;BME280;57876;47.792;12.960;2023-05-03T04:42:11;97473.53;;;14.14;54.01
70434;BME280;57876;47.792;12.960;2023-05-03T04:44:39;97469.78;;;14.09;53.93
70434;BME280;57876;47.792;12.960;2023-05-03T04:47:03;97475.47;;;14.13;54.17
70434;BME280;57876;47.792;12.960;2023-05-03T04:49:27;97469.78;;;14.09;54.30
70434;BME280;57876;47.792;12.960;2023-05-03T04:51:52;97470.06;;;14.08;54.13
70434;BME280;57876;47.792;12.960;2023-05-03T04:54:16;97479.78;;;14.14;53.83
70434;BME280;57876;47.792;12.960;2023-05-03T04:56:41;97490.13;;;14.12;53.79
70434;BME280;57876;47.792;12.960;2023-05-03T04:59:05;97474.41;;;14.09;54.00
70434;BME280;57876;47.792;12.960;2023-05-03T05:01:30;97490.66;;;14.14;54.06
70434;BME280;57876;47.792;12.960;2023-05-03T05:03:55;97476.31;;;14.08;54.29
70434;BME280;57876;47.792;12.960;2023-05-03T05:06:20;97482.06;;;14.07;54.17
70434;BME280;57876;47.792;12.960;2023-05-03T05:08:44;97487.72;;;14.10;53.79
70434;BME280;57876;47.792;12.960;2023-05-03T05:11:09;97489.91;;;14.08;53.84
70434;BME280;57876;47.792;12.960;2023-05-03T05:13:34;97492.59;;;14.14;54.04
70434;BME280;57876;47.792;12.960;2023-05-03T05:15:58;97496.69;;;14.11;54.03
70434;BME280;57876;47.792;12.960;2023-05-03T05:18:30;97500.47;;;14.15;54.25
70434;BME280;57876;47.792;12.960;2023-05-03T05:20:55;97499.41;;;14.11;54.19
70434;BME280;57876;47.792;12.960;2023-05-03T05:23:20;97501.53;;;14.14;53.88
70434;BME280;57876;47.792;12.960;2023-05-03T05:25:47;97498.88;;;14.09;53.91
70434;BME280;57876;47.792;12.960;2023-05-03T05:28:11;97496.69;;;14.11;53.96
70434;BME280;57876;47.792;12.960;2023-05-03T05:30:36;97505.38;;;14.13;53.63
70434;BME280;57876;47.792;12.960;2023-05-03T05:33:01;97496.75;;;14.06;53.81
70434;BME280;57876;47.792;12.960;2023-05-03T05:35:29;97501.59;;;14.09;54.11
70434;BME280;57876;47.792;12.960;2023-05-03T05:37:53;97503.25;;;14.10;53.85
70434;BME280;57876;47.792;12.960;2023-05-03T05:40:18;97505.97;;;14.10;54.15
70434;BME280;57876;47.792;12.960;2023-05-03T05:42:42;97506.19;;;14.14;54.14
70434;BME280;57876;47.792;12.960;2023-05-03T05:45:11;97503.81;;;14.07;54.18
70434;BME280;57876;47.792;12.960;2023-05-03T05:47:36;97510.59;;;14.09;54.09
70434;BME280;57876;47.792;12.960;2023-05-03T05:50:04;97508.44;;;14.06;53.99
70434;BME280;57876;47.792;12.960;2023-05-03T05:52:28;97511.41;;;14.10;54.20
70434;BME280;57876;47.792;12.960;2023-05-03T05:54:53;97506.25;;;14.08;53.93
70434;BME280;57876;47.792;12.960;2023-05-03T05:57:19;97508.16;;;14.08;53.63
70434;BME280;57876;47.792;12.960;2023-05-03T05:59:47;97516.03;;;14.09;53.87
70434;BME280;57876;47.792;12.960;2023-05-03T06:02:15;97509.75;;;14.09;54.06
70434;BME280;57876;47.792;12.960;2023-05-03T06:04:40;97507.63;;;14.06;54.01
70434;BME280;57876;47.792;12.960;2023-05-03T06:07:08;97515.44;;;14.13;53.81
70434;BME280;57876;47.792;12.960;2023-05-03T06:09:32;97510.34;;;14.06;54.12
70434;BME280;57876;47.792;12.960;2023-05-03T06:11:57;97522.03;;;14.06;53.94
70434;BME280;57876;47.792;12.960;2023-05-03T06:14:24;97508.75;;;14.05;53.95
70434;BME280;57876;47.792;12.960;2023-05-03T06:16:51;97526.66;;;14.06;53.83
70434;BME280;57876;47.792;12.960;2023-05-03T06:19:19;97529.34;;;14.11;53.91
70434;BME280;57876;47.792;12.960;2023-05-03T06:21:44;97523.38;;;14.09;54.05
70434;BME280;57876;47.792;12.960;2023-05-03T06:24:08;97529.34;;;14.11;53.76
70434;BME280;57876;47.792;12.960;2023-05-03T06:26:36;97526.63;;;14.11;53.85
70434;BME280;57876;47.792;12.960;2023-05-03T06:29:01;97534.50;;;14.13;54.00
70434;BME280;57876;47.792;12.960;2023-05-03T06:31:26;97530.13;;;14.12;53.99
70434;BME280;57876;47.792;12.960;2023-05-03T06:33:50;97533.97;;;14.10;53.95
70434;BME280;57876;47.792;12.960;2023-05-03T06:36:15;97532.34;;;14.09;54.03
70434;BME280;57876;47.792;12.960;2023-05-03T06:38:39;97539.41;;;14.10;53.95
70434;BME280;57876;47.792;12.960;2023-05-03T06:41:04;97538.81;;;14.14;53.74
70434;BME280;57876;47.792;12.960;2023-05-03T06:43:29;97541.53;;;14.14;53.73
70434;BME280;57876;47.792;12.960;2023-05-03T06:45:53;97530.94;;;14.12;53.79
70434;BME280;57876;47.792;12.960;2023-05-03T06:48:18;97535.31;;;14.13;53.88
70434;BME280;57876;47.792;12.960;2023-05-03T06:50:43;97536.09;;;14.14;53.70
70434;BME280;57876;47.792;12.960;2023-05-03T06:53:07;97526.09;;;14.09;53.91
70434;BME280;57876;47.792;12.960;2023-05-03T06:55:32;97531.78;;;14.13;53.94
70434;BME280;57876;47.792;12.960;2023-05-03T06:57:56;97534.78;;;14.11;53.64
70434;BME280;57876;47.792;12.960;2023-05-03T07:00:21;97531.78;;;14.13;53.53
70434;BME280;57876;47.792;12.960;2023-05-03T07:02:46;97536.63;;;14.16;53.82
70434;BME280;57876;47.792;12.960;2023-05-03T07:05:10;97526.03;;;14.14;53.78
70434;BME280;57876;47.792;12.960;2023-05-03T07:07:36;97525.75;;;14.16;53.80
70434;BME280;57876;47.792;12.960;2023-05-03T07:10:01;97522.22;;;14.15;53.81
70434;BME280;57876;47.792;12.960;2023-05-03T07:12:25;97519.50;;;14.15;53.77
70434;BME280;57876;47.792;12.960;2023-05-03T07:14:51;97525.22;;;14.14;53.82
70434;BME280;57876;47.792;12.960;2023-05-03T07:17:16;97530.38;;;14.15;53.99
70434;BME280;57876;47.792;12.960;2023-05-03T07:19:40;97524.41;;;14.13;53.75
70434;BME280;57876;47.792;12.960;2023-05-03T07:22:04;97530.38;;;14.15;53.71
70434;BME280;57876;47.792;12.960;2023-05-03T07:24:29;97521.13;;;14.16;54.04
70434;BME280;57876;47.792;12.960;2023-05-03T07:26:53;97523.03;;;14.16;53.53
70434;BME280;57876;47.792;12.960;2023-05-03T07:29:18;97522.72;;;14.17;53.85
70434;BME280;57876;47.792;12.960;2023-05-03T07:31:42;97526.56;;;14.16;53.63
70434;BME280;57876;47.792;12.960;2023-05-03T07:34:09;97519.50;;;14.15;53.88
70434;BME280;57876;47.792;12.960;2023-05-03T07:36:33;97527.13;;;14.13;53.56
70434;BME280;57876;47.792;12.960;2023-05-03T07:39:01;97516.78;;;14.15;53.63
70434;BME280;57876;47.792;12.960;2023-05-03T07:41:25;97512.22;;;14.10;54.00
70434;BME280;57876;47.792;12.960;2023-05-03T07:43:50;97515.94;;;14.15;53.76
70434;BME280;57876;47.792;12.960;2023-05-03T07:46:15;97520.91;;;14.13;53.70
70434;BME280;57876;47.792;12.960;2023-05-03T07:48:39;97524.13;;;14.15;53.80
70434;BME280;57876;47.792;12.960;2023-05-03T07:51:04;97521.69;;;14.13;53.45
70434;BME280;57876;47.792;12.960;2023-05-03T07:53:28;97524.13;;;14.15;53.39
70434;BME280;57876;47.792;12.960;2023-05-03T07:55:53;97526.84;;;14.15;53.44
70434;BME280;57876;47.792;12.960;2023-05-03T07:58:18;97525.75;;;14.16;53.77
70434;BME280;57876;47.792;12.960;2023-05-03T08:00:43;97530.38;;;14.15;53.54
70434;BME280;57876;47.792;12.960;2023-05-03T08:03:07;97524.94;;;14.15;53.67
70434;BME280;57876;47.792;12.960;2023-05-03T08:05:35;97524.94;;;14.15;53.57
70434;BME280;57876;47.792;12.960;2023-05-03T08:08:00;97524.94;;;14.15;53.60
70434;BME280;57876;47.792;12.960;2023-05-03T08:10:24;97523.03;;;14.16;53.33
70434;BME280;57876;47.792;12.960;2023-05-03T08:12:48;97515.06;;;14.43;53.03
70434;BME280;57876;47.792;12.960;2023-05-03T08:15:15;97525.94;;;15.05;52.91
70434;BME280;57876;47.792;12.960;2023-05-03T08:17:41;97533.31;;;15.56;52.89
70434;BME280;57876;47.792;12.960;2023-05-03T08:20:07;97535.94;;;15.94;52.80
70434;BME280;57876;47.792;12.960;2023-05-03T08:22:31;97533.94;;;16.27;52.07
70434;BME280;57876;47.792;12.960;2023-05-03T08:24:56;97532.00;;;16.56;52.09
70434;BME280;57876;47.792;12.960;2023-05-03T08:27:20;97530.78;;;16.76;51.93
70434;BME280;57876;47.792;12.960;2023-05-03T08:29:45;97532.91;;;16.92;51.82
70434;BME280;57876;47.792;12.960;2023-05-03T08:32:09;97529.00;;;17.07;51.39
70434;BME280;57876;47.792;12.960;2023-05-03T08:34:34;97536.03;;;17.22;51.53
70434;BME280;57876;47.792;12.960;2023-05-03T08:36:59;97538.53;;;17.32;51.33
70434;BME280;57876;47.792;12.960;2023-05-03T08:39:24;97544.25;;;17.45;51.01
70434;BME280;57876;47.792;12.960;2023-05-03T08:41:54;97537.53;;;17.51;50.95
70434;BME280;57876;47.792;12.960;2023-05-03T08:44:22;97538.72;;;17.58;50.51
70434;BME280;57876;47.792;12.960;2023-05-03T08:46:50;97546.19;;;17.67;50.56
70434;BME280;57876;47.792;12.960;2023-05-03T08:49:16;97545.53;;;17.70;50.34
70434;BME280;57876;47.792;12.960;2023-05-03T08:51:41;97540.88;;;17.70;50.33
70434;BME280;57876;47.792;12.960;2023-05-03T09:14:43;97552.13;;;17.91;50.87
70434;BME280;57876;47.792;12.960;2023-05-03T09:17:16;97548.28;;;17.47;51.34
70434;BME280;57876;47.792;12.960;2023-05-03T09:19:52;97546.94;;;17.00;51.30
70434;BME280;57876;47.792;12.960;2023-05-03T09:22:17;97555.78;;;16.69;51.60
70434;BME280;57876;47.792;12.960;2023-05-03T09:24:57;97556.91;;;16.40;51.90
70434;BME280;57876;47.792;12.960;2023-05-03T09:27:22;97549.13;;;16.20;52.11
70434;BME280;57876;47.792;12.960;2023-05-03T09:29:47;97557.09;;;16.02;52.26
70434;BME280;57876;47.792;12.960;2023-05-03T09:32:12;97553.53;;;15.88;52.32
70434;BME280;57876;47.792;12.960;2023-05-03T09:34:36;97545.09;;;15.71;52.35
70434;BME280;57876;47.792;12.960;2023-05-03T09:37:01;97553.03;;;15.67;52.16
70434;BME280;57876;47.792;12.960;2023-05-03T09:39:25;97545.91;;;15.52;52.60
70434;BME280;57876;47.792;12.960;2023-05-03T09:41:50;97541.66;;;15.46;52.20
70434;BME280;57876;47.792;12.960;2023-05-03T09:44:15;97534.16;;;15.38;52.50
70434;BME280;57876;47.792;12.960;2023-05-03T09:47:05;97536.38;;;15.36;52.52
70434;BME280;57876;47.792;12.960;2023-05-03T09:49:31;97538.38;;;15.30;52.60
70434;BME280;57876;47.792;12.960;2023-05-03T09:51:57;97530.88;;;15.22;52.64
70434;BME280;57876;47.792;12.960;2023-05-03T09:54:23;97528.22;;;15.17;52.44
70434;BME280;57876;47.792;12.960;2023-05-03T09:56:48;97539.94;;;15.17;52.35
70434;BME280;57876;47.792;12.960;2023-05-03T09:59:13;97535.69;;;15.11;52.83
70434;BME280;57876;47.792;12.960;2023-05-03T10:01:38;97529.19;;;15.07;52.52
70434;BME280;57876;47.792;12.960;2023-05-03T10:04:03;97527.59;;;15.06;52.76
70434;BME280;57876;47.792;12.960;2023-05-03T10:06:37;97533.63;;;15.03;52.58
70434;BME280;57876;47.792;12.960;2023-05-03T10:09:13;97526.13;;;14.95;52.43
70434;BME280;57876;47.792;12.960;2023-05-03T10:11:42;97511.53;;;14.86;52.53
70434;BME280;57876;47.792;12.960;2023-05-03T10:14:10;97519.94;;;14.89;52.79
70434;BME280;57876;47.792;12.960;2023-05-03T10:16:40;97518.03;;;14.90;52.71
70434;BME280;57876;47.792;12.960;2023-05-03T10:19:14;97513.97;;;14.87;52.69
70434;BME280;57876;47.792;12.960;2023-05-03T10:22:03;97518.63;;;14.87;52.71
70434;BME280;57876;47.792;12.960;2023-05-03T10:24:31;97506.88;;;14.86;52.77
70434;BME280;57876;47.792;12.960;2023-05-03T10:26:56;97503.22;;;14.77;53.34
70434;BME280;57876;47.792;12.960;2023-05-03T10:31:59;97512.13;;;14.83;52.73
70434;BME280;57876;47.792;12.960;2023-05-03T10:34:32;97497.47;;;14.79;52.81
70434;BME280;57876;47.792;12.960;2023-05-03T10:37:16;97501.22;;;14.83;52.87
70434;BME280;57876;47.792;12.960;2023-05-03T10:39:45;97479.97;;;14.66;52.71
70434;BME280;57876;47.792;12.960;2023-05-03T10:42:10;97488.50;;;14.78;52.54
70434;BME280;57876;47.792;12.960;2023-05-03T10:44:55;97499.38;;;14.78;52.60
70434;BME280;57876;47.792;12.960;2023-05-03T10:47:22;97480.19;;;14.69;52.67
70434;BME280;57876;47.792;12.960;2023-05-03T10:55:08;97492.13;;;14.73;52.81
70434;BME280;57876;47.792;12.960;2023-05-03T10:57:33;97490.78;;;14.71;52.74
70434;BME280;57876;47.792;12.960;2023-05-03T10:59:58;97474.28;;;14.62;52.97
70434;BME280;57876;47.792;12.960;2023-05-03T11:02:29;97487.81;;;14.67;52.58
70434;BME280;57876;47.792;12.960;2023-05-03T11:04:58;97484.09;;;14.63;52.89
70434;BME280;57876;47.792;12.960;2023-05-03T11:07:27;97491.06;;;14.69;52.72
70434;BME280;57876;47.792;12.960;2023-05-03T11:09:51;97480.25;;;14.64;52.78
70434;BME280;57876;47.792;12.960;2023-05-03T11:12:16;97487.22;;;14.70;52.63
70434;BME280;57876;47.792;12.960;2023-05-03T11:14:41;97472.09;;;14.64;52.76
70434;BME280;57876;47.792;12.960;2023-05-03T11:17:06;97479.13;;;14.65;52.36
70434;BME280;57876;47.792;12.960;2023-05-03T11:19:31;97475.13;;;14.63;52.97
70434;BME280;57876;47.792;12.960;2023-05-03T11:21:56;97476.41;;;14.65;52.65
70434;BME280;57876;47.792;12.960;2023-05-03T11:24:20;97467.75;;;14.63;52.55
70434;BME280;57876;47.792;12.960;2023-05-03T11:26:45;97459.94;;;14.57;52.70
70434;BME280;57876;47.792;12.960;2023-05-03T11:30:04;97463.91;;;14.64;52.62
70434;BME280;57876;47.792;12.960;2023-05-03T11:32:51;97453.22;;;14.49;52.58
70434;BME280;57876;47.792;12.960;2023-05-03T11:35:31;97447.28;;;14.47;52.88
70434;BME280;57876;47.792;12.960;2023-05-03T11:37:58;97448.34;;;14.46;52.71
70434;BME280;57876;47.792;12.960;2023-05-03T11:40:23;97456.69;;;14.54;52.74
70434;BME280;57876;47.792;12.960;2023-05-03T11:42:54;97449.41;;;14.50;52.71
70434;BME280;57876;47.792;12.960;2023-05-03T11:45:26;97439.19;;;14.42;53.13
70434;BME280;57876;47.792;12.960;2023-05-03T11:47:52;97447.75;;;14.49;52.90
70434;BME280;57876;47.792;12.960;2023-05-03T11:50:26;97446.44;;;14.46;52.92
70434;BME280;57876;47.792;12.960;2023-05-03T11:52:54;97456.44;;;14.51;53.06
70434;BME280;57876;47.792;12.960;2023-05-03T11:55:20;97440.50;;;14.44;53.06
70434;BME280;57876;47.792;12.960;2023-05-03T11:57:44;97458.06;;;14.52;52.94
70434;BME280;57876;47.792;12.960;2023-05-03T12:02:38;97461.84;;;14.56;52.84
70434;BME280;57876;47.792;12.960;2023-05-03T12:05:05;97432.69;;;14.38;52.74
70434;BME280;57876;47.792;12.960;2023-05-03T12:07:31;97448.03;;;14.52;52.88
70434;BME280;57876;47.792;12.960;2023-05-03T12:09:55;97441.72;;;14.52;52.93
70434;BME280;57876;47.792;12.960;2023-05-03T12:12:20;97453.69;;;14.56;52.67
70434;BME280;57876;47.792;12.960;2023-05-03T12:14:58;97443.09;;;14.54;52.56
70434;BME280;57876;47.792;12.960;2023-05-03T12:17:35;97445.81;;;14.54;52.78
70434;BME280;57876;47.792;12.960;2023-05-03T12:20:19;97444.19;;;14.53;52.95
70434;BME280;57876;47.792;12.960;2023-05-03T12:22:50;97428.78;;;14.44;52.87
70434;BME280;57876;47.792;12.960;2023-05-03T12:25:15;97414.44;;;14.38;52.76
70434;BME280;57876;47.792;12.960;2023-05-03T12:27:39;97424.44;;;14.43;52.57
70434;BME280;57876;47.792;12.960;2023-05-03T12:30:05;97432.81;;;14.46;52.80
70434;BME280;57876;47.792;12.960;2023-05-03T12:32:30;97430.63;;;14.48;52.85
70434;BME280;57876;47.792;12.960;2023-05-03T12:34:55;97430.84;;;14.52;52.74
70434;BME280;57876;47.792;12.960;2023-05-03T12:37:19;97412.31;;;14.35;52.76
70434;BME280;57876;47.792;12.960;2023-05-03T12:39:44;97412.25;;;14.40;52.75
70434;BME280;57876;47.792;12.960;2023-05-03T12:42:08;97397.91;;;14.35;52.86
70434;BME280;57876;47.792;12.960;2023-05-03T12:44:34;97407.84;;;14.44;52.66
70434;BME280;57876;47.792;12.960;2023-05-03T12:46:59;97397.84;;;14.40;52.83
70434;BME280;57876;47.792;12.960;2023-05-03T12:49:23;97407.00;;;14.44;52.92
70434;BME280;57876;47.792;12.960;2023-05-03T12:51:48;97385.97;;;14.30;53.14
70434;BME280;57876;47.792;12.960;2023-05-03T12:54:13;97414.09;;;14.45;52.72
70434;BME280;57876;47.792;12.960;2023-05-03T12:56:38;97400.75;;;14.43;52.57
70434;BME280;57876;47.792;12.960;2023-05-03T12:59:02;97380.25;;;14.32;52.94
70434;BME280;57876;47.792;12.960;2023-05-03T13:01:27;97387.53;;;14.37;52.77
70434;BME280;57876;47.792;12.960;2023-05-03T13:03:55;97383.41;;;14.39;53.26
70434;BME280;57876;47.792;12.960;2023-05-03T13:06:22;97397.97;;;14.48;52.79
70434;BME280;57876;47.792;12.960;2023-05-03T13:08:46;97384.03;;;14.36;52.76
70434;BME280;57876;47.792;12.960;2023-05-03T13:11:11;97365.59;;;14.28;52.87
70434;BME280;57876;47.792;12.960;2023-05-03T13:13:36;97397.97;;;14.48;52.85
70434;BME280;57876;47.792;12.960;2023-05-03T13:16:00;97368.50;;;14.37;52.93
70434;BME280;57876;47.792;12.960;2023-05-03T13:18:26;97385.47;;;14.47;52.97
70434;BME280;57876;47.792;12.960;2023-05-03T13:20:50;97375.53;;;14.38;52.80
70434;BME280;57876;47.792;12.960;2023-05-03T13:23:15;97373.88;;;14.42;52.89
70434;BME280;57876;47.792;12.960;2023-05-03T13:25:43;97356.56;;;14.32;52.80
70434;BME280;57876;47.792;12.960;2023-05-03T13:28:07;97372.97;;;14.46;52.95
70434;BME280;57876;47.792;12.960;2023-05-03T13:30:32;97379.22;;;14.47;52.92